sensor_id;sensor_type;location;lat;lon;timestamp;P1;durP1;ratioP1;P2;durP2;ratioP2
51475;SDS011;37554;50.362;7.568;2023-07-30T00:01:16;2.38;;;0.70;;
51475;SDS011;37554;50.362;7.568;2023-07-30T00:03:42;2.33;;;0.60;;
51475;SDS011;37554;50.362;7.568;2023-07-30T00:06:08;0.77;;;0.60;;
51475;SDS011;37554;50.362;7.568;2023-07-30T00:08:33;0.73;;;0.60;;
51475;SDS011;37554;50.362;7.568;2023-07-30T00:10:59;2.22;;;0.60;;
51475;SDS011;37554;50.362;7.568;2023-07-30T00:13:25;1.25;;;0.55;;
51475;SDS011;37554;50.362;7.568;2023-07-30T00:15:50;1.13;;;0.68;;
51475;SDS011;37554;50.362;7.568;2023-07-30T00:18:16;0.98;;;0.63;;
51475;SDS011;37554;50.362;7.568;2023-07-30T00:20:42;2.90;;;0.70;;
51475;SDS011;37554;50.362;7.568;2023-07-30T00:23:08;1.30;;;0.70;;
51475;SDS011;37554;50.362;7.568;2023-07-30T00:25:33;2.22;;;0.65;;
51475;SDS011;37554;50.362;7.568;2023-07-30T00:27:59;1.70;;;0.70;;
51475;SDS011;37554;50.362;7.568;2023-07-30T00:30:24;1.60;;;0.77;;
51475;SDS011;37554;50.362;7.568;2023-07-30T00:32:50;0.73;;;0.65;;
51475;SDS011;37554;50.362;7.568;2023-07-30T00:35:16;0.70;;;0.60;;
51475;SDS011;37554;50.362;7.568;2023-07-30T00:37:42;1.50;;;0.60;;
51475;SDS011;37554;50.362;7.568;2023-07-30T00:40:07;1.05;;;0.65;;
51475;SDS011;37554;50.362;7.568;2023-07-30T00:42:33;0.68;;;0.60;;
51475;SDS011;37554;50.362;7.568;2023-07-30T00:44:59;0.70;;;0.63;;
51475;SDS011;37554;50.362;7.568;2023-07-30T00:47:24;1.13;;;0.70;;
51475;SDS011;37554;50.362;7.568;2023-07-30T00:49:51;1.38;;;0.80;;
51475;SDS011;37554;50.362;7.568;2023-07-30T00:52:18;0.82;;;0.75;;
51475;SDS011;37554;50.362;7.568;2023-07-30T00:54:46;0.68;;;0.68;;
51475;SDS011;37554;50.362;7.568;2023-07-30T00:57:13;1.20;;;0.90;;
51475;SDS011;37554;50.362;7.568;2023-07-30T00:59:39;1.20;;;0.60;;
51475;SDS011;37554;50.362;7.568;2023-07-30T01:02:05;2.28;;;0.85;;
51475;SDS011;37554;50.362;7.568;2023-07-30T01:04:31;2.33;;;0.50;;
51475;SDS011;37554;50.362;7.568;2023-07-30T01:06:57;0.80;;;0.60;;
51475;SDS011;37554;50.362;7.568;2023-07-30T01:09:23;0.80;;;0.60;;
51475;SDS011;37554;50.362;7.568;2023-07-30T01:11:49;2.25;;;0.70;;
51475;SDS011;37554;50.362;7.568;2023-07-30T01:14:16;1.30;;;0.70;;
51475;SDS011;37554;50.362;7.568;2023-07-30T01:16:44;0.70;;;0.60;;
51475;SDS011;37554;50.362;7.568;2023-07-30T01:19:09;2.13;;;0.70;;
51475;SDS011;37554;50.362;7.568;2023-07-30T01:21:35;2.70;;;0.70;;
51475;SDS011;37554;50.362;7.568;2023-07-30T01:24:01;1.13;;;0.80;;
51475;SDS011;37554;50.362;7.568;2023-07-30T01:26:39;0.65;;;0.65;;
51475;SDS011;37554;50.362;7.568;2023-07-30T01:29:16;0.68;;;0.68;;
51475;SDS011;37554;50.362;7.568;2023-07-30T01:31:55;0.70;;;0.50;;
51475;SDS011;37554;50.362;7.568;2023-07-30T01:34:25;0.95;;;0.60;;
51475;SDS011;37554;50.362;7.568;2023-07-30T01:36:53;0.75;;;0.60;;
51475;SDS011;37554;50.362;7.568;2023-07-30T01:39:19;1.63;;;0.60;;
51475;SDS011;37554;50.362;7.568;2023-07-30T01:41:45;1.77;;;0.80;;
51475;SDS011;37554;50.362;7.568;2023-07-30T01:44:11;0.65;;;0.65;;
51475;SDS011;37554;50.362;7.568;2023-07-30T01:46:37;1.73;;;0.80;;
51475;SDS011;37554;50.362;7.568;2023-07-30T01:49:02;0.70;;;0.50;;
51475;SDS011;37554;50.362;7.568;2023-07-30T01:51:28;0.60;;;0.57;;
51475;SDS011;37554;50.362;7.568;2023-07-30T01:53:54;2.15;;;0.90;;
51475;SDS011;37554;50.362;7.568;2023-07-30T01:56:19;1.05;;;0.60;;
51475;SDS011;37554;50.362;7.568;2023-07-30T01:58:45;1.23;;;0.60;;
51475;SDS011;37554;50.362;7.568;2023-07-30T02:01:11;1.33;;;0.70;;
51475;SDS011;37554;50.362;7.568;2023-07-30T02:03:37;2.17;;;0.73;;
51475;SDS011;37554;50.362;7.568;2023-07-30T02:06:02;1.08;;;0.50;;
51475;SDS011;37554;50.362;7.568;2023-07-30T02:08:28;0.60;;;0.52;;
51475;SDS011;37554;50.362;7.568;2023-07-30T02:10:54;0.70;;;0.63;;
51475;SDS011;37554;50.362;7.568;2023-07-30T02:13:21;2.42;;;0.65;;
51475;SDS011;37554;50.362;7.568;2023-07-30T02:15:47;1.85;;;0.63;;
51475;SDS011;37554;50.362;7.568;2023-07-30T02:18:12;0.60;;;0.60;;
51475;SDS011;37554;50.362;7.568;2023-07-30T02:20:38;1.02;;;0.60;;
51475;SDS011;37554;50.362;7.568;2023-07-30T02:23:03;1.30;;;0.60;;
51475;SDS011;37554;50.362;7.568;2023-07-30T02:25:29;0.70;;;0.68;;
51475;SDS011;37554;50.362;7.568;2023-07-30T02:27:56;0.75;;;0.47;;
51475;SDS011;37554;50.362;7.568;2023-07-30T02:30:22;1.88;;;0.70;;
51475;SDS011;37554;50.362;7.568;2023-07-30T02:32:48;1.00;;;0.60;;
51475;SDS011;37554;50.362;7.568;2023-07-30T02:35:13;0.70;;;0.68;;
51475;SDS011;37554;50.362;7.568;2023-07-30T02:37:39;1.30;;;0.75;;
51475;SDS011;37554;50.362;7.568;2023-07-30T02:40:04;1.63;;;0.60;;
51475;SDS011;37554;50.362;7.568;2023-07-30T02:42:30;1.45;;;0.50;;
51475;SDS011;37554;50.362;7.568;2023-07-30T02:44:56;1.70;;;0.68;;
51475;SDS011;37554;50.362;7.568;2023-07-30T02:47:22;2.13;;;0.70;;
51475;SDS011;37554;50.362;7.568;2023-07-30T02:49:47;1.40;;;0.50;;
51475;SDS011;37554;50.362;7.568;2023-07-30T02:52:13;0.77;;;0.60;;
51475;SDS011;37554;50.362;7.568;2023-07-30T02:54:39;0.90;;;0.60;;
51475;SDS011;37554;50.362;7.568;2023-07-30T02:57:04;0.70;;;0.70;;
51475;SDS011;37554;50.362;7.568;2023-07-30T02:59:30;0.80;;;0.63;;
51475;SDS011;37554;50.362;7.568;2023-07-30T03:01:55;2.05;;;0.57;;
51475;SDS011;37554;50.362;7.568;2023-07-30T03:04:21;1.48;;;0.60;;
51475;SDS011;37554;50.362;7.568;2023-07-30T03:06:47;3.17;;;0.60;;
51475;SDS011;37554;50.362;7.568;2023-07-30T03:09:12;1.38;;;0.40;;
51475;SDS011;37554;50.362;7.568;2023-07-30T03:11:38;0.70;;;0.40;;
51475;SDS011;37554;50.362;7.568;2023-07-30T03:14:03;2.75;;;0.55;;
51475;SDS011;37554;50.362;7.568;2023-07-30T03:16:29;2.33;;;0.60;;
51475;SDS011;37554;50.362;7.568;2023-07-30T03:18:55;1.50;;;0.68;;
51475;SDS011;37554;50.362;7.568;2023-07-30T03:21:21;0.68;;;0.45;;
51475;SDS011;37554;50.362;7.568;2023-07-30T03:23:46;1.45;;;0.60;;
51475;SDS011;37554;50.362;7.568;2023-07-30T03:26:13;1.55;;;0.60;;
51475;SDS011;37554;50.362;7.568;2023-07-30T03:28:39;2.42;;;0.60;;
51475;SDS011;37554;50.362;7.568;2023-07-30T03:31:04;0.73;;;0.63;;
51475;SDS011;37554;50.362;7.568;2023-07-30T03:33:30;1.52;;;0.70;;
51475;SDS011;37554;50.362;7.568;2023-07-30T03:35:56;2.17;;;0.60;;
51475;SDS011;37554;50.362;7.568;2023-07-30T03:38:22;1.45;;;0.60;;
51475;SDS011;37554;50.362;7.568;2023-07-30T03:40:47;3.33;;;0.70;;
51475;SDS011;37554;50.362;7.568;2023-07-30T03:43:13;1.20;;;0.52;;
51475;SDS011;37554;50.362;7.568;2023-07-30T03:45:39;0.90;;;0.60;;
51475;SDS011;37554;50.362;7.568;2023-07-30T03:48:05;0.77;;;0.45;;
51475;SDS011;37554;50.362;7.568;2023-07-30T03:50:30;0.55;;;0.50;;
51475;SDS011;37554;50.362;7.568;2023-07-30T03:52:56;1.10;;;0.60;;
51475;SDS011;37554;50.362;7.568;2023-07-30T03:55:23;1.40;;;0.73;;
51475;SDS011;37554;50.362;7.568;2023-07-30T03:57:49;1.63;;;0.70;;
51475;SDS011;37554;50.362;7.568;2023-07-30T04:00:14;1.33;;;0.80;;
51475;SDS011;37554;50.362;7.568;2023-07-30T04:02:40;0.73;;;0.70;;
51475;SDS011;37554;50.362;7.568;2023-07-30T04:05:06;1.58;;;0.63;;
51475;SDS011;37554;50.362;7.568;2023-07-30T04:07:31;0.98;;;0.60;;
51475;SDS011;37554;50.362;7.568;2023-07-30T04:09:57;1.98;;;0.60;;
51475;SDS011;37554;50.362;7.568;2023-07-30T04:12:23;1.10;;;0.60;;
51475;SDS011;37554;50.362;7.568;2023-07-30T04:14:48;0.82;;;0.60;;
51475;SDS011;37554;50.362;7.568;2023-07-30T04:17:14;1.98;;;0.73;;
51475;SDS011;37554;50.362;7.568;2023-07-30T04:19:39;2.17;;;0.68;;
51475;SDS011;37554;50.362;7.568;2023-07-30T04:22:05;2.47;;;0.50;;
51475;SDS011;37554;50.362;7.568;2023-07-30T04:24:30;1.63;;;0.60;;
51475;SDS011;37554;50.362;7.568;2023-07-30T04:26:56;0.70;;;0.50;;
51475;SDS011;37554;50.362;7.568;2023-07-30T04:29:22;1.92;;;0.50;;
51475;SDS011;37554;50.362;7.568;2023-07-30T04:31:47;1.13;;;0.75;;
51475;SDS011;37554;50.362;7.568;2023-07-30T04:34:13;0.85;;;0.70;;
51475;SDS011;37554;50.362;7.568;2023-07-30T04:36:40;1.33;;;0.65;;
51475;SDS011;37554;50.362;7.568;2023-07-30T04:39:05;1.67;;;0.80;;
51475;SDS011;37554;50.362;7.568;2023-07-30T04:41:31;1.55;;;0.75;;
51475;SDS011;37554;50.362;7.568;2023-07-30T04:43:56;0.88;;;0.60;;
51475;SDS011;37554;50.362;7.568;2023-07-30T04:46:22;1.92;;;0.70;;
51475;SDS011;37554;50.362;7.568;2023-07-30T04:48:47;1.02;;;0.70;;
51475;SDS011;37554;50.362;7.568;2023-07-30T04:51:13;0.50;;;0.40;;
51475;SDS011;37554;50.362;7.568;2023-07-30T04:53:39;2.00;;;0.88;;
51475;SDS011;37554;50.362;7.568;2023-07-30T04:56:04;1.90;;;0.50;;
51475;SDS011;37554;50.362;7.568;2023-07-30T04:58:30;1.55;;;0.55;;
51475;SDS011;37554;50.362;7.568;2023-07-30T05:00:55;1.25;;;0.65;;
51475;SDS011;37554;50.362;7.568;2023-07-30T05:03:21;1.13;;;0.75;;
51475;SDS011;37554;50.362;7.568;2023-07-30T05:05:47;2.80;;;0.50;;
51475;SDS011;37554;50.362;7.568;2023-07-30T05:08:12;2.22;;;0.80;;
51475;SDS011;37554;50.362;7.568;2023-07-30T05:10:38;1.52;;;0.63;;
51475;SDS011;37554;50.362;7.568;2023-07-30T05:13:03;0.82;;;0.40;;
51475;SDS011;37554;50.362;7.568;2023-07-30T05:15:29;1.88;;;1.23;;
51475;SDS011;37554;50.362;7.568;2023-07-30T05:17:54;1.25;;;0.60;;
51475;SDS011;37554;50.362;7.568;2023-07-30T05:20:20;1.17;;;0.80;;
51475;SDS011;37554;50.362;7.568;2023-07-30T05:22:46;1.27;;;0.68;;
51475;SDS011;37554;50.362;7.568;2023-07-30T05:25:11;1.23;;;0.82;;
51475;SDS011;37554;50.362;7.568;2023-07-30T05:27:37;1.02;;;0.60;;
51475;SDS011;37554;50.362;7.568;2023-07-30T05:30:03;1.65;;;0.55;;
51475;SDS011;37554;50.362;7.568;2023-07-30T05:32:29;1.42;;;0.80;;
51475;SDS011;37554;50.362;7.568;2023-07-30T05:34:54;1.17;;;0.80;;
51475;SDS011;37554;50.362;7.568;2023-07-30T05:37:20;0.70;;;0.50;;
51475;SDS011;37554;50.362;7.568;2023-07-30T05:39:45;1.60;;;0.50;;
51475;SDS011;37554;50.362;7.568;2023-07-30T05:42:11;1.75;;;0.63;;
51475;SDS011;37554;50.362;7.568;2023-07-30T05:44:36;2.45;;;0.70;;
51475;SDS011;37554;50.362;7.568;2023-07-30T05:47:02;1.05;;;0.73;;
51475;SDS011;37554;50.362;7.568;2023-07-30T05:49:28;0.80;;;0.60;;
51475;SDS011;37554;50.362;7.568;2023-07-30T05:51:53;1.00;;;0.70;;
51475;SDS011;37554;50.362;7.568;2023-07-30T05:54:19;1.63;;;0.70;;
51475;SDS011;37554;50.362;7.568;2023-07-30T05:56:44;1.48;;;0.77;;
51475;SDS011;37554;50.362;7.568;2023-07-30T05:59:10;3.10;;;0.70;;
51475;SDS011;37554;50.362;7.568;2023-07-30T06:01:36;1.45;;;0.73;;
51475;SDS011;37554;50.362;7.568;2023-07-30T06:04:01;1.77;;;0.80;;
51475;SDS011;37554;50.362;7.568;2023-07-30T06:06:28;1.58;;;0.80;;
51475;SDS011;37554;50.362;7.568;2023-07-30T06:08:54;1.38;;;0.60;;
51475;SDS011;37554;50.362;7.568;2023-07-30T06:11:20;0.80;;;0.80;;
51475;SDS011;37554;50.362;7.568;2023-07-30T06:13:46;0.68;;;0.60;;
51475;SDS011;37554;50.362;7.568;2023-07-30T06:16:12;1.05;;;0.68;;
51475;SDS011;37554;50.362;7.568;2023-07-30T06:18:38;0.80;;;0.50;;
51475;SDS011;37554;50.362;7.568;2023-07-30T06:21:04;1.27;;;0.60;;
51475;SDS011;37554;50.362;7.568;2023-07-30T06:23:29;1.55;;;0.60;;
51475;SDS011;37554;50.362;7.568;2023-07-30T06:25:55;0.73;;;0.50;;
51475;SDS011;37554;50.362;7.568;2023-07-30T06:28:20;1.77;;;0.55;;
51475;SDS011;37554;50.362;7.568;2023-07-30T06:30:46;1.25;;;0.80;;
51475;SDS011;37554;50.362;7.568;2023-07-30T06:33:12;0.75;;;0.60;;
51475;SDS011;37554;50.362;7.568;2023-07-30T06:35:37;2.13;;;0.70;;
51475;SDS011;37554;50.362;7.568;2023-07-30T06:38:05;0.98;;;0.60;;
51475;SDS011;37554;50.362;7.568;2023-07-30T06:40:33;0.98;;;0.50;;
51475;SDS011;37554;50.362;7.568;2023-07-30T06:42:58;2.35;;;0.60;;
51475;SDS011;37554;50.362;7.568;2023-07-30T06:45:24;1.02;;;0.60;;
51475;SDS011;37554;50.362;7.568;2023-07-30T06:47:50;2.92;;;0.73;;
51475;SDS011;37554;50.362;7.568;2023-07-30T06:50:15;2.28;;;0.57;;
51475;SDS011;37554;50.362;7.568;2023-07-30T06:52:41;2.75;;;0.57;;
51475;SDS011;37554;50.362;7.568;2023-07-30T06:55:07;1.00;;;0.82;;
51475;SDS011;37554;50.362;7.568;2023-07-30T06:57:32;1.13;;;0.82;;
51475;SDS011;37554;50.362;7.568;2023-07-30T06:59:58;2.15;;;0.82;;
51475;SDS011;37554;50.362;7.568;2023-07-30T07:02:25;1.15;;;0.80;;
51475;SDS011;37554;50.362;7.568;2023-07-30T07:04:51;2.55;;;0.60;;
51475;SDS011;37554;50.362;7.568;2023-07-30T07:07:17;1.15;;;0.88;;
51475;SDS011;37554;50.362;7.568;2023-07-30T07:09:42;2.42;;;0.73;;
51475;SDS011;37554;50.362;7.568;2023-07-30T07:12:08;2.28;;;1.10;;
51475;SDS011;37554;50.362;7.568;2023-07-30T07:14:34;1.38;;;0.80;;
51475;SDS011;37554;50.362;7.568;2023-07-30T07:17:00;3.28;;;1.10;;
51475;SDS011;37554;50.362;7.568;2023-07-30T07:19:25;3.47;;;0.85;;
51475;SDS011;37554;50.362;7.568;2023-07-30T07:21:51;3.45;;;1.00;;
51475;SDS011;37554;50.362;7.568;2023-07-30T07:24:16;1.98;;;1.00;;
51475;SDS011;37554;50.362;7.568;2023-07-30T07:26:42;2.63;;;0.98;;
51475;SDS011;37554;50.362;7.568;2023-07-30T07:29:09;2.55;;;0.90;;
51475;SDS011;37554;50.362;7.568;2023-07-30T07:31:34;2.33;;;1.02;;
51475;SDS011;37554;50.362;7.568;2023-07-30T07:34:00;1.55;;;0.93;;
51475;SDS011;37554;50.362;7.568;2023-07-30T07:36:26;3.47;;;1.00;;
51475;SDS011;37554;50.362;7.568;2023-07-30T07:38:51;1.73;;;1.05;;
51475;SDS011;37554;50.362;7.568;2023-07-30T07:41:17;2.33;;;0.98;;
51475;SDS011;37554;50.362;7.568;2023-07-30T07:43:43;1.92;;;1.08;;
51475;SDS011;37554;50.362;7.568;2023-07-30T07:46:09;2.28;;;1.27;;
51475;SDS011;37554;50.362;7.568;2023-07-30T07:48:41;3.80;;;1.08;;
51475;SDS011;37554;50.362;7.568;2023-07-30T07:51:11;4.32;;;1.08;;
51475;SDS011;37554;50.362;7.568;2023-07-30T07:53:37;3.95;;;1.30;;
51475;SDS011;37554;50.362;7.568;2023-07-30T07:56:03;2.38;;;1.08;;
51475;SDS011;37554;50.362;7.568;2023-07-30T07:58:30;2.92;;;1.20;;
51475;SDS011;37554;50.362;7.568;2023-07-30T08:00:56;4.13;;;1.25;;
51475;SDS011;37554;50.362;7.568;2023-07-30T08:03:23;2.85;;;1.13;;
51475;SDS011;37554;50.362;7.568;2023-07-30T08:05:48;3.15;;;1.20;;
51475;SDS011;37554;50.362;7.568;2023-07-30T08:08:15;2.65;;;0.93;;
51475;SDS011;37554;50.362;7.568;2023-07-30T08:10:41;2.50;;;1.15;;
51475;SDS011;37554;50.362;7.568;2023-07-30T08:13:11;3.13;;;1.20;;
51475;SDS011;37554;50.362;7.568;2023-07-30T08:15:37;5.80;;;1.10;;
51475;SDS011;37554;50.362;7.568;2023-07-30T08:18:03;6.13;;;1.20;;
51475;SDS011;37554;50.362;7.568;2023-07-30T08:20:29;2.70;;;1.35;;
51475;SDS011;37554;50.362;7.568;2023-07-30T08:22:54;2.97;;;1.38;;
51475;SDS011;37554;50.362;7.568;2023-07-30T08:25:20;2.25;;;1.15;;
51475;SDS011;37554;50.362;7.568;2023-07-30T08:27:46;2.92;;;1.35;;
51475;SDS011;37554;50.362;7.568;2023-07-30T08:30:12;2.85;;;1.23;;
51475;SDS011;37554;50.362;7.568;2023-07-30T08:32:37;2.63;;;1.30;;
51475;SDS011;37554;50.362;7.568;2023-07-30T08:35:03;2.22;;;1.13;;
51475;SDS011;37554;50.362;7.568;2023-07-30T08:37:29;1.30;;;1.00;;
51475;SDS011;37554;50.362;7.568;2023-07-30T08:39:55;1.88;;;1.05;;
51475;SDS011;37554;50.362;7.568;2023-07-30T08:42:21;3.47;;;1.13;;
51475;SDS011;37554;50.362;7.568;2023-07-30T08:44:47;2.75;;;1.40;;
51475;SDS011;37554;50.362;7.568;2023-07-30T08:47:13;2.00;;;1.25;;
51475;SDS011;37554;50.362;7.568;2023-07-30T08:49:38;2.03;;;1.00;;
51475;SDS011;37554;50.362;7.568;2023-07-30T08:52:04;2.42;;;0.88;;
51475;SDS011;37554;50.362;7.568;2023-07-30T08:54:33;3.25;;;1.30;;
51475;SDS011;37554;50.362;7.568;2023-07-30T08:57:00;3.03;;;1.00;;
51475;SDS011;37554;50.362;7.568;2023-07-30T08:59:27;2.38;;;1.20;;
51475;SDS011;37554;50.362;7.568;2023-07-30T09:01:59;1.80;;;1.00;;
51475;SDS011;37554;50.362;7.568;2023-07-30T09:04:26;2.05;;;1.10;;
51475;SDS011;37554;50.362;7.568;2023-07-30T09:06:54;2.47;;;1.08;;
51475;SDS011;37554;50.362;7.568;2023-07-30T09:09:21;1.45;;;0.93;;
51475;SDS011;37554;50.362;7.568;2023-07-30T09:11:53;1.92;;;1.17;;
51475;SDS011;37554;50.362;7.568;2023-07-30T09:14:20;2.88;;;1.00;;
51475;SDS011;37554;50.362;7.568;2023-07-30T09:16:46;9.40;;;1.13;;
51475;SDS011;37554;50.362;7.568;2023-07-30T09:19:18;2.38;;;1.05;;
51475;SDS011;37554;50.362;7.568;2023-07-30T09:21:44;2.05;;;1.00;;
51475;SDS011;37554;50.362;7.568;2023-07-30T09:24:10;3.00;;;1.30;;
51475;SDS011;37554;50.362;7.568;2023-07-30T09:26:40;2.47;;;1.10;;
51475;SDS011;37554;50.362;7.568;2023-07-30T09:29:08;1.67;;;0.98;;
51475;SDS011;37554;50.362;7.568;2023-07-30T09:31:47;1.80;;;1.50;;
51475;SDS011;37554;50.362;7.568;2023-07-30T09:34:19;1.75;;;1.40;;
51475;SDS011;37554;50.362;7.568;2023-07-30T09:36:46;2.58;;;1.50;;
51475;SDS011;37554;50.362;7.568;2023-07-30T09:39:19;4.55;;;2.40;;
51475;SDS011;37554;50.362;7.568;2023-07-30T09:41:46;3.83;;;1.70;;
51475;SDS011;37554;50.362;7.568;2023-07-30T09:44:13;3.75;;;1.20;;
51475;SDS011;37554;50.362;7.568;2023-07-30T09:46:42;3.70;;;1.25;;
51475;SDS011;37554;50.362;7.568;2023-07-30T09:49:08;2.33;;;1.10;;
51475;SDS011;37554;50.362;7.568;2023-07-30T09:51:35;1.88;;;0.80;;
51475;SDS011;37554;50.362;7.568;2023-07-30T09:54:03;3.45;;;0.88;;
51475;SDS011;37554;50.362;7.568;2023-07-30T09:56:32;2.38;;;0.98;;
51475;SDS011;37554;50.362;7.568;2023-07-30T09:58:58;1.90;;;1.10;;
51475;SDS011;37554;50.362;7.568;2023-07-30T10:01:24;3.80;;;1.15;;
51475;SDS011;37554;50.362;7.568;2023-07-30T10:03:53;3.42;;;1.10;;
51475;SDS011;37554;50.362;7.568;2023-07-30T10:06:21;4.88;;;1.67;;
51475;SDS011;37554;50.362;7.568;2023-07-30T10:08:50;5.25;;;2.53;;
51475;SDS011;37554;50.362;7.568;2023-07-30T10:11:18;6.25;;;2.80;;
51475;SDS011;37554;50.362;7.568;2023-07-30T10:13:45;4.45;;;2.45;;
51475;SDS011;37554;50.362;7.568;2023-07-30T10:16:12;4.53;;;1.70;;
51475;SDS011;37554;50.362;7.568;2023-07-30T10:18:41;6.97;;;1.90;;
51475;SDS011;37554;50.362;7.568;2023-07-30T10:21:11;4.05;;;1.60;;
51475;SDS011;37554;50.362;7.568;2023-07-30T10:23:57;4.40;;;1.27;;
51475;SDS011;37554;50.362;7.568;2023-07-30T10:26:28;4.43;;;1.55;;
51475;SDS011;37554;50.362;7.568;2023-07-30T10:29:11;4.43;;;1.52;;
51475;SDS011;37554;50.362;7.568;2023-07-30T10:31:39;4.93;;;1.08;;
51475;SDS011;37554;50.362;7.568;2023-07-30T10:34:08;4.93;;;1.60;;
51475;SDS011;37554;50.362;7.568;2023-07-30T10:39:26;5.18;;;2.03;;
51475;SDS011;37554;50.362;7.568;2023-07-30T10:41:53;3.58;;;1.80;;
51475;SDS011;37554;50.362;7.568;2023-07-30T10:44:24;6.05;;;2.22;;
51475;SDS011;37554;50.362;7.568;2023-07-30T10:46:57;8.43;;;3.75;;
51475;SDS011;37554;50.362;7.568;2023-07-30T10:49:24;9.73;;;3.65;;
51475;SDS011;37554;50.362;7.568;2023-07-30T10:51:51;6.35;;;2.22;;
51475;SDS011;37554;50.362;7.568;2023-07-30T10:54:20;4.38;;;1.85;;
51475;SDS011;37554;50.362;7.568;2023-07-30T10:56:47;3.88;;;1.70;;
51475;SDS011;37554;50.362;7.568;2023-07-30T10:59:13;5.63;;;2.33;;
51475;SDS011;37554;50.362;7.568;2023-07-30T11:01:40;6.47;;;2.38;;
51475;SDS011;37554;50.362;7.568;2023-07-30T11:04:10;3.97;;;1.95;;
51475;SDS011;37554;50.362;7.568;2023-07-30T11:06:45;3.83;;;1.65;;
51475;SDS011;37554;50.362;7.568;2023-07-30T11:09:33;8.65;;;2.35;;
51475;SDS011;37554;50.362;7.568;2023-07-30T11:11:59;9.73;;;3.75;;
51475;SDS011;37554;50.362;7.568;2023-07-30T11:14:25;8.25;;;3.17;;
51475;SDS011;37554;50.362;7.568;2023-07-30T11:16:53;10.60;;;3.63;;
51475;SDS011;37554;50.362;7.568;2023-07-30T11:19:20;5.03;;;2.58;;
51475;SDS011;37554;50.362;7.568;2023-07-30T11:21:49;7.07;;;2.80;;
51475;SDS011;37554;50.362;7.568;2023-07-30T11:24:16;8.32;;;3.00;;
51475;SDS011;37554;50.362;7.568;2023-07-30T11:26:42;4.28;;;2.47;;
51475;SDS011;37554;50.362;7.568;2023-07-30T11:31:41;5.22;;;2.10;;
51475;SDS011;37554;50.362;7.568;2023-07-30T11:34:08;3.25;;;1.65;;
51475;SDS011;37554;50.362;7.568;2023-07-30T11:36:34;5.15;;;1.95;;
51475;SDS011;37554;50.362;7.568;2023-07-30T11:38:59;4.47;;;2.55;;
51475;SDS011;37554;50.362;7.568;2023-07-30T11:41:26;4.82;;;2.67;;
51475;SDS011;37554;50.362;7.568;2023-07-30T11:43:53;5.22;;;2.47;;
51475;SDS011;37554;50.362;7.568;2023-07-30T11:46:19;7.47;;;2.80;;
51475;SDS011;37554;50.362;7.568;2023-07-30T11:48:48;6.32;;;3.03;;
51475;SDS011;37554;50.362;7.568;2023-07-30T11:51:20;6.85;;;2.50;;
51475;SDS011;37554;50.362;7.568;2023-07-30T11:53:54;5.78;;;2.42;;
51475;SDS011;37554;50.362;7.568;2023-07-30T11:56:25;5.20;;;2.00;;
51475;SDS011;37554;50.362;7.568;2023-07-30T11:58:58;3.53;;;1.70;;
51475;SDS011;37554;50.362;7.568;2023-07-30T12:01:32;6.00;;;1.70;;
51475;SDS011;37554;50.362;7.568;2023-07-30T12:04:02;5.00;;;2.10;;
51475;SDS011;37554;50.362;7.568;2023-07-30T12:11:44;5.10;;;1.77;;
51475;SDS011;37554;50.362;7.568;2023-07-30T12:14:09;2.35;;;1.17;;
51475;SDS011;37554;50.362;7.568;2023-07-30T12:16:35;4.63;;;1.50;;
51475;SDS011;37554;50.362;7.568;2023-07-30T12:19:01;3.45;;;1.17;;
51475;SDS011;37554;50.362;7.568;2023-07-30T12:21:26;5.40;;;1.35;;
51475;SDS011;37554;50.362;7.568;2023-07-30T12:23:52;4.50;;;1.48;;
51475;SDS011;37554;50.362;7.568;2023-07-30T12:26:17;2.72;;;1.20;;
51475;SDS011;37554;50.362;7.568;2023-07-30T12:28:43;3.70;;;1.40;;
51475;SDS011;37554;50.362;7.568;2023-07-30T12:31:09;4.32;;;1.55;;
51475;SDS011;37554;50.362;7.568;2023-07-30T12:33:34;2.72;;;1.35;;
51475;SDS011;37554;50.362;7.568;2023-07-30T12:36:00;2.83;;;1.40;;
51475;SDS011;37554;50.362;7.568;2023-07-30T12:38:28;6.10;;;2.58;;
51475;SDS011;37554;50.362;7.568;2023-07-30T12:40:56;4.78;;;2.08;;
51475;SDS011;37554;50.362;7.568;2023-07-30T12:43:22;5.72;;;2.25;;
51475;SDS011;37554;50.362;7.568;2023-07-30T12:45:47;4.53;;;1.40;;
51475;SDS011;37554;50.362;7.568;2023-07-30T12:48:13;4.30;;;1.60;;
51475;SDS011;37554;50.362;7.568;2023-07-30T12:50:39;6.28;;;2.42;;
51475;SDS011;37554;50.362;7.568;2023-07-30T12:53:04;4.75;;;1.38;;
51475;SDS011;37554;50.362;7.568;2023-07-30T12:55:30;4.20;;;1.20;;
51475;SDS011;37554;50.362;7.568;2023-07-30T12:57:56;3.15;;;0.93;;
51475;SDS011;37554;50.362;7.568;2023-07-30T13:00:23;2.47;;;0.90;;
51475;SDS011;37554;50.362;7.568;2023-07-30T13:02:49;5.38;;;0.93;;
51475;SDS011;37554;50.362;7.568;2023-07-30T13:05:20;2.92;;;1.00;;
51475;SDS011;37554;50.362;7.568;2023-07-30T13:07:46;1.73;;;0.80;;
51475;SDS011;37554;50.362;7.568;2023-07-30T13:10:12;2.60;;;1.08;;
51475;SDS011;37554;50.362;7.568;2023-07-30T13:12:37;2.80;;;0.82;;
51475;SDS011;37554;50.362;7.568;2023-07-30T13:15:03;4.03;;;0.75;;
51475;SDS011;37554;50.362;7.568;2023-07-30T13:17:30;3.70;;;1.00;;
51475;SDS011;37554;50.362;7.568;2023-07-30T13:19:56;3.67;;;0.98;;
51475;SDS011;37554;50.362;7.568;2023-07-30T13:22:22;1.63;;;0.88;;
51475;SDS011;37554;50.362;7.568;2023-07-30T13:24:48;2.53;;;0.80;;
51475;SDS011;37554;50.362;7.568;2023-07-30T13:27:13;1.83;;;0.73;;
51475;SDS011;37554;50.362;7.568;2023-07-30T13:29:39;3.65;;;1.17;;
51475;SDS011;37554;50.362;7.568;2023-07-30T13:32:05;3.67;;;0.80;;
51475;SDS011;37554;50.362;7.568;2023-07-30T13:34:31;1.67;;;0.68;;
51475;SDS011;37554;50.362;7.568;2023-07-30T13:36:57;3.40;;;0.80;;
51475;SDS011;37554;50.362;7.568;2023-07-30T13:39:22;2.17;;;0.60;;
51475;SDS011;37554;50.362;7.568;2023-07-30T13:41:48;2.83;;;0.65;;
51475;SDS011;37554;50.362;7.568;2023-07-30T13:44:14;2.85;;;0.80;;
51475;SDS011;37554;50.362;7.568;2023-07-30T13:46:39;2.53;;;0.70;;
51475;SDS011;37554;50.362;7.568;2023-07-30T13:49:05;3.67;;;0.82;;
51475;SDS011;37554;50.362;7.568;2023-07-30T13:51:34;1.77;;;0.80;;
51475;SDS011;37554;50.362;7.568;2023-07-30T13:54:00;2.97;;;0.88;;
51475;SDS011;37554;50.362;7.568;2023-07-30T13:56:29;4.47;;;0.82;;
51475;SDS011;37554;50.362;7.568;2023-07-30T13:58:55;2.80;;;1.00;;
51475;SDS011;37554;50.362;7.568;2023-07-30T14:01:21;2.45;;;0.90;;
51475;SDS011;37554;50.362;7.568;2023-07-30T14:03:47;2.20;;;0.75;;
51475;SDS011;37554;50.362;7.568;2023-07-30T14:06:13;1.73;;;0.65;;
51475;SDS011;37554;50.362;7.568;2023-07-30T14:08:39;1.40;;;0.50;;
51475;SDS011;37554;50.362;7.568;2023-07-30T14:11:05;3.17;;;0.50;;
51475;SDS011;37554;50.362;7.568;2023-07-30T14:13:30;1.63;;;0.70;;
51475;SDS011;37554;50.362;7.568;2023-07-30T14:15:56;3.30;;;0.70;;
51475;SDS011;37554;50.362;7.568;2023-07-30T14:18:22;1.95;;;0.85;;
51475;SDS011;37554;50.362;7.568;2023-07-30T14:20:49;3.67;;;0.70;;
51475;SDS011;37554;50.362;7.568;2023-07-30T14:23:15;2.10;;;0.75;;
51475;SDS011;37554;50.362;7.568;2023-07-30T14:25:40;1.77;;;0.80;;
51475;SDS011;37554;50.362;7.568;2023-07-30T14:28:06;1.40;;;0.65;;
51475;SDS011;37554;50.362;7.568;2023-07-30T14:30:32;5.28;;;0.88;;
51475;SDS011;37554;50.362;7.568;2023-07-30T14:32:58;3.38;;;0.75;;
51475;SDS011;37554;50.362;7.568;2023-07-30T14:35:24;1.85;;;0.75;;
51475;SDS011;37554;50.362;7.568;2023-07-30T14:37:50;3.63;;;0.90;;
51475;SDS011;37554;50.362;7.568;2023-07-30T14:40:16;2.90;;;0.85;;
51475;SDS011;37554;50.362;7.568;2023-07-30T14:42:42;2.03;;;0.90;;
51475;SDS011;37554;50.362;7.568;2023-07-30T14:45:07;3.17;;;1.50;;
51475;SDS011;37554;50.362;7.568;2023-07-30T14:47:34;3.78;;;1.20;;
51475;SDS011;37554;50.362;7.568;2023-07-30T14:49:59;2.40;;;0.93;;
51475;SDS011;37554;50.362;7.568;2023-07-30T14:52:25;3.50;;;1.25;;
51475;SDS011;37554;50.362;7.568;2023-07-30T14:54:53;3.42;;;1.33;;